QTR677 VRMM-OTHH
Flight info
| Callsign | QTR677 |
|---|---|
| Flight time | N/A |
| Altitude | 34000 |
| Route | LELEM2A LELEM L894 KITAL P570 EMURU N563 SODEX DCT UMIBU P899 TOVOX |
| Aircraft | B77W/H-SDE1E2E3FGHIJ2J3J4J5M1RWXY/LB1D1 |
Departure
| Time | 2026-05-07 09:42 |
|---|---|
| Airport | Velana International Airport (VRMM) |
Arrival
| Time | N/A |
|---|---|
| Airport | Hamad International Airport (OTHH) |
| Time | Latitude | Longitude | Altitude | Speed | Heading |
|---|---|---|---|---|---|
| 2026-05-07 08:22 | 4.18356 | 73.52795 | 18 ft | 0 kts | 236° |
| 2026-05-07 09:29 | 4.18357 | 73.52796 | 18 ft | 1 kts | 237° |
| 2026-05-07 09:30 | 4.18365 | 73.52809 | 18 ft | 2 kts | 237° |
| 2026-05-07 09:30 | 4.18371 | 73.52818 | 18 ft | 1 kts | 237° |
| 2026-05-07 09:30 | 4.18379 | 73.52829 | 18 ft | 2 kts | 228° |
| 2026-05-07 09:30 | 4.18390 | 73.52839 | 18 ft | 2 kts | 217° |
| 2026-05-07 09:31 | 4.18402 | 73.52847 | 18 ft | 2 kts | 208° |
| 2026-05-07 09:31 | 4.18415 | 73.52853 | 18 ft | 2 kts | 198° |
| 2026-05-07 09:31 | 4.18430 | 73.52857 | 18 ft | 2 kts | 188° |
| 2026-05-07 09:31 | 4.18444 | 73.52858 | 18 ft | 1 kts | 178° |
| 2026-05-07 09:32 | 4.18448 | 73.52858 | 18 ft | 0 kts | 177° |
| 2026-05-07 09:34 | 4.18447 | 73.52858 | 18 ft | 0 kts | 177° |
| 2026-05-07 09:35 | 4.18433 | 73.52858 | 18 ft | 4 kts | 178° |
| 2026-05-07 09:36 | 4.18392 | 73.52859 | 18 ft | 6 kts | 179° |
| 2026-05-07 09:36 | 4.18353 | 73.52860 | 18 ft | 4 kts | 179° |
| 2026-05-07 09:36 | 4.18320 | 73.52861 | 18 ft | 4 kts | 178° |
| 2026-05-07 09:36 | 4.18283 | 73.52862 | 18 ft | 6 kts | 179° |
| 2026-05-07 09:37 | 4.18226 | 73.52863 | 18 ft | 8 kts | 180° |
| 2026-05-07 09:37 | 4.18166 | 73.52862 | 18 ft | 7 kts | 180° |
| 2026-05-07 09:37 | 4.18120 | 73.52864 | 18 ft | 5 kts | 178° |
| 2026-05-07 09:37 | 4.18076 | 73.52865 | 18 ft | 7 kts | 178° |
| 2026-05-07 09:38 | 4.18011 | 73.52867 | 18 ft | 11 kts | 179° |
| 2026-05-07 09:38 | 4.17937 | 73.52868 | 18 ft | 8 kts | 179° |
| 2026-05-07 09:38 | 4.17886 | 73.52870 | 18 ft | 6 kts | 171° |
| 2026-05-07 09:38 | 4.17853 | 73.52883 | 18 ft | 3 kts | 141° |
| 2026-05-07 09:39 | 4.17846 | 73.52892 | 18 ft | 1 kts | 114° |
| 2026-05-07 09:39 | 4.17845 | 73.52908 | 18 ft | 3 kts | 81° |
| 2026-05-07 09:39 | 4.17867 | 73.52933 | 18 ft | 6 kts | 21° |
| 2026-05-07 09:39 | 4.17930 | 73.52935 | 18 ft | 11 kts | 357° |
| 2026-05-07 09:40 | 4.18003 | 73.52934 | 18 ft | 9 kts | 358° |
| 2026-05-07 09:40 | 4.18066 | 73.52932 | 18 ft | 8 kts | 359° |
| 2026-05-07 09:40 | 4.18128 | 73.52930 | 18 ft | 8 kts | 1° |
| 2026-05-07 09:40 | 4.18177 | 73.52954 | 18 ft | 7 kts | 58° |
| 2026-05-07 09:41 | 4.18186 | 73.53008 | 18 ft | 9 kts | 87° |
| 2026-05-07 09:41 | 4.18189 | 73.53066 | 18 ft | 6 kts | 81° |
| 2026-05-07 09:41 | 4.18228 | 73.53101 | 18 ft | 13 kts | 4° |
| 2026-05-07 09:41 | 4.18381 | 73.53098 | 18 ft | 38 kts | 360° |
| 2026-05-07 09:42 | 4.18826 | 73.53100 | 18 ft | 94 kts | 359° |
| 2026-05-07 09:42 | 4.19702 | 73.53098 | 18 ft | 154 kts | 356° |
| 2026-05-07 09:42 | 4.20936 | 73.53099 | 158 ft | 192 kts | 0° |
| 2026-05-07 09:42 | 4.22282 | 73.53172 | 875 ft | 195 kts | 2° |
| 2026-05-07 09:43 | 4.23622 | 73.53325 | 1537 ft | 199 kts | 4° |
| 2026-05-07 09:43 | 4.25084 | 73.53488 | 1777 ft | 219 kts | 1° |
| 2026-05-07 09:43 | 4.26610 | 73.53583 | 2422 ft | 219 kts | 359° |
| 2026-05-07 09:43 | 4.28118 | 73.53594 | 3069 ft | 219 kts | 349° |
| 2026-05-07 09:44 | 4.29588 | 73.53041 | 3348 ft | 235 kts | 330° |
| 2026-05-07 09:44 | 4.31049 | 73.52176 | 3751 ft | 251 kts | 324° |
| 2026-05-07 09:44 | 4.32479 | 73.51134 | 4432 ft | 256 kts | 322° |
| 2026-05-07 09:44 | 4.33831 | 73.49953 | 5046 ft | 265 kts | 317° |
| 2026-05-07 09:45 | 4.35224 | 73.48652 | 5459 ft | 282 kts | 317° |
| 2026-05-07 09:45 | 4.36647 | 73.47319 | 6122 ft | 288 kts | 317° |
| 2026-05-07 09:45 | 4.38105 | 73.45952 | 6852 ft | 292 kts | 317° |
| 2026-05-07 09:45 | 4.39597 | 73.44554 | 7551 ft | 297 kts | 317° |
| 2026-05-07 09:46 | 4.41116 | 73.43130 | 8216 ft | 302 kts | 317° |
| 2026-05-07 09:46 | 4.42666 | 73.41677 | 8901 ft | 307 kts | 317° |
| 2026-05-07 09:46 | 4.44233 | 73.40208 | 9623 ft | 309 kts | 317° |
| 2026-05-07 09:46 | 4.45807 | 73.38733 | 10299 ft | 312 kts | 317° |
| 2026-05-07 09:47 | 4.47406 | 73.37233 | 10924 ft | 317 kts | 317° |
| 2026-05-07 09:47 | 4.49015 | 73.35725 | 11596 ft | 320 kts | 317° |
| 2026-05-07 09:47 | 4.50677 | 73.34166 | 11978 ft | 334 kts | 317° |
| 2026-05-07 09:47 | 4.52417 | 73.32535 | 12257 ft | 351 kts | 317° |
| 2026-05-07 09:48 | 4.54243 | 73.30822 | 12512 ft | 367 kts | 317° |
| 2026-05-07 09:48 | 4.56153 | 73.29031 | 12811 ft | 382 kts | 317° |
| 2026-05-07 09:48 | 4.58117 | 73.27189 | 13334 ft | 389 kts | 317° |
| 2026-05-07 09:48 | 4.60090 | 73.25337 | 14101 ft | 388 kts | 317° |
| 2026-05-07 09:49 | 4.62054 | 73.23495 | 14866 ft | 388 kts | 316° |
| 2026-05-07 09:49 | 4.64032 | 73.21639 | 15465 ft | 392 kts | 316° |
| 2026-05-07 09:49 | 4.66036 | 73.19758 | 16026 ft | 397 kts | 316° |
| 2026-05-07 09:49 | 4.68056 | 73.17862 | 16607 ft | 400 kts | 316° |
| 2026-05-07 09:50 | 4.70101 | 73.15943 | 17206 ft | 403 kts | 316° |
| 2026-05-07 09:50 | 4.72161 | 73.14008 | 17748 ft | 407 kts | 316° |
| 2026-05-07 09:50 | 4.74246 | 73.12052 | 18297 ft | 411 kts | 316° |
| 2026-05-07 09:50 | 4.76344 | 73.10078 | 18889 ft | 413 kts | 316° |
| 2026-05-07 09:51 | 4.78458 | 73.08095 | 19464 ft | 415 kts | 316° |
| 2026-05-07 09:51 | 4.80589 | 73.06094 | 19982 ft | 418 kts | 316° |
| 2026-05-07 09:51 | 4.82724 | 73.04090 | 20474 ft | 422 kts | 316° |
| 2026-05-07 09:51 | 4.84875 | 73.02076 | 20996 ft | 424 kts | 317° |
| 2026-05-07 09:52 | 4.87170 | 73.00199 | 21496 ft | 427 kts | 321° |
| 2026-05-07 09:52 | 4.89551 | 72.98350 | 21945 ft | 431 kts | 321° |
| 2026-05-07 09:52 | 4.91934 | 72.96501 | 22419 ft | 434 kts | 321° |
| 2026-05-07 09:52 | 4.94332 | 72.94640 | 22864 ft | 438 kts | 321° |
| 2026-05-07 09:53 | 4.96754 | 72.92759 | 23217 ft | 443 kts | 321° |
| 2026-05-07 09:53 | 4.99207 | 72.90853 | 23545 ft | 449 kts | 321° |
| 2026-05-07 09:53 | 5.01690 | 72.88923 | 23986 ft | 451 kts | 321° |
| 2026-05-07 09:53 | 5.04176 | 72.86989 | 24459 ft | 453 kts | 322° |
| 2026-05-07 09:54 | 5.06678 | 72.85040 | 24825 ft | 458 kts | 322° |
| 2026-05-07 09:54 | 5.09208 | 72.83069 | 25135 ft | 463 kts | 322° |
| 2026-05-07 09:54 | 5.11765 | 72.81077 | 25511 ft | 467 kts | 322° |
| 2026-05-07 09:54 | 5.14342 | 72.79069 | 25905 ft | 470 kts | 322° |
| 2026-05-07 09:55 | 5.16936 | 72.77048 | 26278 ft | 474 kts | 322° |
| 2026-05-07 09:55 | 5.19469 | 72.75073 | 26622 ft | 477 kts | 323° |
| 2026-05-07 09:55 | 5.22103 | 72.73020 | 26995 ft | 481 kts | 323° |
| 2026-05-07 09:55 | 5.24753 | 72.70955 | 27365 ft | 484 kts | 323° |
| 2026-05-07 09:56 | 5.27420 | 72.68875 | 27737 ft | 487 kts | 323° |
| 2026-05-07 09:56 | 5.30106 | 72.66782 | 28105 ft | 490 kts | 323° |
| 2026-05-07 09:56 | 5.32808 | 72.64675 | 28435 ft | 494 kts | 323° |
| 2026-05-07 09:56 | 5.35530 | 72.62552 | 28808 ft | 497 kts | 323° |
| 2026-05-07 09:57 | 5.38261 | 72.60422 | 29254 ft | 497 kts | 323° |
| 2026-05-07 09:57 | 5.40987 | 72.58296 | 29764 ft | 497 kts | 323° |
| 2026-05-07 09:57 | 5.43709 | 72.56172 | 30318 ft | 495 kts | 323° |
| 2026-05-07 09:57 | 5.46428 | 72.54050 | 30837 ft | 494 kts | 323° |
| 2026-05-07 09:58 | 5.49142 | 72.51932 | 31256 ft | 495 kts | 323° |
| 2026-05-07 09:58 | 5.51861 | 72.49810 | 31658 ft | 495 kts | 323° |
| 2026-05-07 09:58 | 5.54581 | 72.47687 | 32046 ft | 496 kts | 323° |
| 2026-05-07 09:58 | 5.57304 | 72.45562 | 32443 ft | 496 kts | 323° |
| 2026-05-07 09:59 | 5.60028 | 72.43435 | 32884 ft | 496 kts | 323° |
| 2026-05-07 09:59 | 5.62745 | 72.41314 | 33388 ft | 494 kts | 323° |
| 2026-05-07 09:59 | 5.65455 | 72.39197 | 33798 ft | 494 kts | 324° |
| 2026-05-07 10:00 | 5.70944 | 72.34912 | 33807 ft | 506 kts | 323° |
| 2026-05-07 10:00 | 5.76566 | 72.30521 | 33805 ft | 516 kts | 323° |
| 2026-05-07 10:01 | 5.82234 | 72.26091 | 33806 ft | 514 kts | 323° |
| 2026-05-07 10:01 | 5.87890 | 72.21670 | 33801 ft | 516 kts | 323° |
| 2026-05-07 10:02 | 5.93547 | 72.17248 | 33802 ft | 514 kts | 323° |
| 2026-05-07 10:02 | 5.99238 | 72.12797 | 33808 ft | 518 kts | 323° |
| 2026-05-07 10:03 | 6.04913 | 72.08357 | 33804 ft | 514 kts | 323° |
| 2026-05-07 10:03 | 6.10596 | 72.03911 | 33811 ft | 518 kts | 323° |
| 2026-05-07 10:04 | 6.16278 | 71.99463 | 33811 ft | 517 kts | 323° |
| 2026-05-07 10:04 | 6.21981 | 71.94998 | 33814 ft | 519 kts | 324° |
| 2026-05-07 10:05 | 6.27659 | 71.90551 | 33814 ft | 516 kts | 323° |
| 2026-05-07 10:05 | 6.33263 | 71.86162 | 33821 ft | 518 kts | 323° |
| 2026-05-07 10:06 | 6.38940 | 71.81713 | 33827 ft | 516 kts | 323° |
| 2026-05-07 10:06 | 6.44616 | 71.77264 | 33831 ft | 517 kts | 323° |
| 2026-05-07 10:07 | 6.50291 | 71.72815 | 33831 ft | 518 kts | 323° |
| 2026-05-07 10:07 | 6.55969 | 71.68361 | 33834 ft | 517 kts | 323° |
| 2026-05-07 10:08 | 6.61661 | 71.63896 | 33832 ft | 517 kts | 324° |
| 2026-05-07 10:08 | 6.67325 | 71.59451 | 33831 ft | 518 kts | 323° |
| 2026-05-07 10:09 | 6.73008 | 71.54990 | 33828 ft | 516 kts | 323° |
| 2026-05-07 10:09 | 6.78682 | 71.50534 | 33828 ft | 517 kts | 323° |
| 2026-05-07 10:10 | 6.84346 | 71.46085 | 33825 ft | 516 kts | 324° |
| 2026-05-07 10:10 | 6.90008 | 71.41636 | 33822 ft | 516 kts | 324° |
| 2026-05-07 10:11 | 6.95678 | 71.37180 | 33815 ft | 516 kts | 323° |
| 2026-05-07 10:11 | 7.01344 | 71.32726 | 33805 ft | 518 kts | 323° |
| 2026-05-07 10:12 | 7.07017 | 71.28264 | 33806 ft | 516 kts | 323° |
| 2026-05-07 10:12 | 7.12682 | 71.23808 | 33805 ft | 518 kts | 323° |
| 2026-05-07 10:13 | 7.18344 | 71.19352 | 33806 ft | 515 kts | 323° |
| 2026-05-07 10:13 | 7.23989 | 71.14908 | 33806 ft | 515 kts | 323° |
| 2026-05-07 10:14 | 7.29643 | 71.10455 | 33808 ft | 516 kts | 323° |
| 2026-05-07 10:14 | 7.35300 | 71.05999 | 33809 ft | 515 kts | 323° |
| 2026-05-07 10:15 | 7.40949 | 71.01548 | 33821 ft | 515 kts | 323° |
| 2026-05-07 10:15 | 7.46510 | 70.97164 | 33826 ft | 515 kts | 323° |
| 2026-05-07 10:16 | 7.52143 | 70.92722 | 33829 ft | 513 kts | 323° |
| 2026-05-07 10:16 | 7.57757 | 70.88294 | 33829 ft | 511 kts | 323° |
| 2026-05-07 10:17 | 7.63375 | 70.83861 | 33829 ft | 513 kts | 323° |
| 2026-05-07 10:17 | 7.68990 | 70.79429 | 33829 ft | 511 kts | 323° |
| 2026-05-07 10:18 | 7.74619 | 70.74985 | 33824 ft | 514 kts | 323° |
| 2026-05-07 10:18 | 7.80253 | 70.70534 | 33833 ft | 513 kts | 323° |
| 2026-05-07 10:19 | 7.85854 | 70.66109 | 33828 ft | 510 kts | 323° |
| 2026-05-07 10:19 | 7.91460 | 70.61677 | 33827 ft | 512 kts | 322° |
| 2026-05-07 10:20 | 7.97057 | 70.57252 | 33830 ft | 510 kts | 322° |
| 2026-05-07 10:20 | 8.02641 | 70.52835 | 33832 ft | 509 kts | 322° |
| 2026-05-07 10:21 | 8.08234 | 70.48410 | 33830 ft | 511 kts | 322° |
| 2026-05-07 10:21 | 8.13827 | 70.43982 | 33826 ft | 511 kts | 322° |
| 2026-05-07 10:22 | 8.19411 | 70.39560 | 33824 ft | 510 kts | 323° |
| 2026-05-07 10:22 | 8.24997 | 70.35135 | 33828 ft | 509 kts | 322° |
| 2026-05-07 10:23 | 8.30582 | 70.30710 | 33831 ft | 511 kts | 322° |